sensor_id;sensor_type;location;lat;lon;timestamp;temperature;humidity
72919;SHT30;61063;55.700;26.994;2023-02-01T00:01:45;1.4;82.9
72919;SHT30;61063;55.700;26.994;2023-02-01T00:06:25;1.4;83
72919;SHT30;61063;55.700;26.994;2023-02-01T00:11:23;1.4;83
72919;SHT30;61063;55.700;26.994;2023-02-01T00:16:37;1.4;83.1
72919;SHT30;61063;55.700;26.994;2023-02-01T00:22:01;1.3;83.1
72919;SHT30;61063;55.700;26.994;2023-02-01T00:26:25;1.3;83.2
72919;SHT30;61063;55.700;26.994;2023-02-01T00:31:45;1.3;83.3
72919;SHT30;61063;55.700;26.994;2023-02-01T00:36:49;1.2;83.4
72919;SHT30;61063;55.700;26.994;2023-02-01T00:41:13;1.2;83.5
72919;SHT30;61063;55.700;26.994;2023-02-01T00:46:23;1.2;83.7
72919;SHT30;61063;55.700;26.994;2023-02-01T00:51:14;1.2;83.7
72919;SHT30;61063;55.700;26.994;2023-02-01T00:56:59;1.2;83.6
72919;SHT30;61063;55.700;26.994;2023-02-01T01:01:59;1.2;83.7
72919;SHT30;61063;55.700;26.994;2023-02-01T01:06:37;1.2;83.7
72919;SHT30;61063;55.700;26.994;2023-02-01T01:12:01;1.2;83.5
72919;SHT30;61063;55.700;26.994;2023-02-01T01:17:03;1.2;83.4
72919;SHT30;61063;55.700;26.994;2023-02-01T01:21:37;1.3;83.3
72919;SHT30;61063;55.700;26.994;2023-02-01T01:26:39;1.2;83.2
72919;SHT30;61063;55.700;26.994;2023-02-01T01:32:01;1.2;83.2
72919;SHT30;61063;55.700;26.994;2023-02-01T01:36:13;1.2;83.2
72919;SHT30;61063;55.700;26.994;2023-02-01T01:41:28;1.1;83.3
72919;SHT30;61063;55.700;26.994;2023-02-01T01:46:25;1;83.5
72919;SHT30;61063;55.700;26.994;2023-02-01T01:51:51;1;83.5
72919;SHT30;61063;55.700;26.994;2023-02-01T01:56:50;1;83.7
72919;SHT30;61063;55.700;26.994;2023-02-01T02:01:35;1;83.7
72919;SHT30;61063;55.700;26.994;2023-02-01T02:07:02;1;83.6
72919;SHT30;61063;55.700;26.994;2023-02-01T02:11:37;1;83.6
72919;SHT30;61063;55.700;26.994;2023-02-01T02:16:53;1;83.7
72919;SHT30;61063;55.700;26.994;2023-02-01T02:22:08;1.1;83.6
72919;SHT30;61063;55.700;26.994;2023-02-01T02:27:00;1.1;83.5
72919;SHT30;61063;55.700;26.994;2023-02-01T02:31:40;1.1;83.5
72919;SHT30;61063;55.700;26.994;2023-02-01T02:36:41;1.1;83.4
72919;SHT30;61063;55.700;26.994;2023-02-01T02:41:41;1.1;83.5
72919;SHT30;61063;55.700;26.994;2023-02-01T02:46:24;1;83.5
72919;SHT30;61063;55.700;26.994;2023-02-01T02:51:50;0.9;83.5
72919;SHT30;61063;55.700;26.994;2023-02-01T02:56:37;0.8;83.6
72919;SHT30;61063;55.700;26.994;2023-02-01T03:01:59;0.7;84
72919;SHT30;61063;55.700;26.994;2023-02-01T03:06:37;0.6;84
72919;SHT30;61063;55.700;26.994;2023-02-01T03:12:01;0.6;84.2
72919;SHT30;61063;55.700;26.994;2023-02-01T03:16:14;0.5;84.3
72919;SHT30;61063;55.700;26.994;2023-02-01T03:21:52;0.5;84.3
72919;SHT30;61063;55.700;26.994;2023-02-01T03:26:36;0.5;84.3
72919;SHT30;61063;55.700;26.994;2023-02-01T03:31:27;0.5;84.2
72919;SHT30;61063;55.700;26.994;2023-02-01T03:37:01;0.5;84.2
72919;SHT30;61063;55.700;26.994;2023-02-01T03:41:48;0.5;84.2
72919;SHT30;61063;55.700;26.994;2023-02-01T03:47:02;0.5;84.1
72919;SHT30;61063;55.700;26.994;2023-02-01T03:51:37;0.5;84
72919;SHT30;61063;55.700;26.994;2023-02-01T03:56:44;0.5;84
72919;SHT30;61063;55.700;26.994;2023-02-01T04:01:41;0.5;83.9
72919;SHT30;61063;55.700;26.994;2023-02-01T04:06:49;0.6;83.7
72919;SHT30;61063;55.700;26.994;2023-02-01T04:11:23;0.7;83.6
72919;SHT30;61063;55.700;26.994;2023-02-01T04:16:49;0.7;83.6
72919;SHT30;61063;55.700;26.994;2023-02-01T04:21:39;0.7;83.5
72919;SHT30;61063;55.700;26.994;2023-02-01T04:26:49;0.7;83.5
72919;SHT30;61063;55.700;26.994;2023-02-01T04:31:57;0.7;83.4
72919;SHT30;61063;55.700;26.994;2023-02-01T04:37:01;0.6;83.5
72919;SHT30;61063;55.700;26.994;2023-02-01T04:41:59;0.7;83.5
72919;SHT30;61063;55.700;26.994;2023-02-01T04:46:47;0.7;83.4
72919;SHT30;61063;55.700;26.994;2023-02-01T04:52:01;0.8;83.3
72919;SHT30;61063;55.700;26.994;2023-02-01T04:56:25;0.8;83.4
72919;SHT30;61063;55.700;26.994;2023-02-01T05:01:47;0.7;83.6
72919;SHT30;61063;55.700;26.994;2023-02-01T05:06:23;0.8;83.7
72919;SHT30;61063;55.700;26.994;2023-02-01T05:11:49;0.7;83.9
72919;SHT30;61063;55.700;26.994;2023-02-01T05:16:39;0.7;84.2
72919;SHT30;61063;55.700;26.994;2023-02-01T05:22:05;0.7;84.4
72919;SHT30;61063;55.700;26.994;2023-02-01T05:26:13;0.7;84.5
72919;SHT30;61063;55.700;26.994;2023-02-01T05:31:57;0.7;84.5
72919;SHT30;61063;55.700;26.994;2023-02-01T05:36:49;0.7;84.5
72919;SHT30;61063;55.700;26.994;2023-02-01T05:41:41;0.7;84.6
72919;SHT30;61063;55.700;26.994;2023-02-01T05:47:03;0.7;84.7
72919;SHT30;61063;55.700;26.994;2023-02-01T05:51:13;0.7;84.8
72919;SHT30;61063;55.700;26.994;2023-02-01T05:57:03;0.7;84.9
72919;SHT30;61063;55.700;26.994;2023-02-01T06:01:23;0.7;85
72919;SHT30;61063;55.700;26.994;2023-02-01T06:06:25;0.7;85.2
72919;SHT30;61063;55.700;26.994;2023-02-01T06:11:13;0.7;85.2
72919;SHT30;61063;55.700;26.994;2023-02-01T06:16:59;0.7;85.3
72919;SHT30;61063;55.700;26.994;2023-02-01T06:21:23;0.8;85.2
72919;SHT30;61063;55.700;26.994;2023-02-01T06:27:01;0.8;85.2
72919;SHT30;61063;55.700;26.994;2023-02-01T06:31:37;0.8;85.2
72919;SHT30;61063;55.700;26.994;2023-02-01T06:36:13;0.8;85.1
72919;SHT30;61063;55.700;26.994;2023-02-01T06:41:37;0.9;84.9
72919;SHT30;61063;55.700;26.994;2023-02-01T06:46:39;0.9;84.7
72919;SHT30;61063;55.700;26.994;2023-02-01T06:51:47;1;84.5
72919;SHT30;61063;55.700;26.994;2023-02-01T06:56:13;1;84.4
72919;SHT30;61063;55.700;26.994;2023-02-01T07:01:13;1.1;84.3
72919;SHT30;61063;55.700;26.994;2023-02-01T07:06:13;1.1;84.1
72919;SHT30;61063;55.700;26.994;2023-02-01T07:12:03;1.1;84.1
72919;SHT30;61063;55.700;26.994;2023-02-01T07:16:39;1.2;84.2
72919;SHT30;61063;55.700;26.994;2023-02-01T07:21:39;1.1;84.3
72919;SHT30;61063;55.700;26.994;2023-02-01T07:26:37;1.2;84.4
72919;SHT30;61063;55.700;26.994;2023-02-01T07:31:29;1.2;84.7
72919;SHT30;61063;55.700;26.994;2023-02-01T07:36:41;1.3;84.7
72919;SHT30;61063;55.700;26.994;2023-02-01T07:41:29;1.3;84.7
72919;SHT30;61063;55.700;26.994;2023-02-01T07:47:07;1.4;84.8
72919;SHT30;61063;55.700;26.994;2023-02-01T07:52:03;1.5;84.5
72919;SHT30;61063;55.700;26.994;2023-02-01T07:56:39;1.6;84.5
72919;SHT30;61063;55.700;26.994;2023-02-01T08:02:01;1.7;84.4
72919;SHT30;61063;55.700;26.994;2023-02-01T08:07:01;1.7;84.3
72919;SHT30;61063;55.700;26.994;2023-02-01T08:11:37;1.9;84.1
72919;SHT30;61063;55.700;26.994;2023-02-01T08:16:29;1.9;83.8
72919;SHT30;61063;55.700;26.994;2023-02-01T08:22:05;1.9;84.1
72919;SHT30;61063;55.700;26.994;2023-02-01T08:26:27;1.8;84.3
72919;SHT30;61063;55.700;26.994;2023-02-01T08:31:41;1.8;84.4
72919;SHT30;61063;55.700;26.994;2023-02-01T08:36:52;1.8;84.3
72919;SHT30;61063;55.700;26.994;2023-02-01T08:41:49;1.9;84.2
72919;SHT30;61063;55.700;26.994;2023-02-01T08:46:53;1.9;84.2
72919;SHT30;61063;55.700;26.994;2023-02-01T08:51:23;2;83.9
72919;SHT30;61063;55.700;26.994;2023-02-01T08:56:29;2;83.9
72919;SHT30;61063;55.700;26.994;2023-02-01T09:01:14;2.1;84
72919;SHT30;61063;55.700;26.994;2023-02-01T09:06:53;2.3;83.7
72919;SHT30;61063;55.700;26.994;2023-02-01T09:11:14;2.3;83.5
72919;SHT30;61063;55.700;26.994;2023-02-01T09:16:49;2.3;83.9
72919;SHT30;61063;55.700;26.994;2023-02-01T09:21:13;2.3;83.9
72919;SHT30;61063;55.700;26.994;2023-02-01T09:27:02;2.4;84
72919;SHT30;61063;55.700;26.994;2023-02-01T09:31:47;2.4;84.1
72919;SHT30;61063;55.700;26.994;2023-02-01T09:37:01;2.6;83.8
72919;SHT30;61063;55.700;26.994;2023-02-01T09:42:06;2.8;83.3
72919;SHT30;61063;55.700;26.994;2023-02-01T09:46:37;3;82.8
72919;SHT30;61063;55.700;26.994;2023-02-01T09:52:04;3.2;82.4
72919;SHT30;61063;55.700;26.994;2023-02-01T09:56:13;3.1;81.9
72919;SHT30;61063;55.700;26.994;2023-02-01T10:01:47;3.1;81.9
72919;SHT30;61063;55.700;26.994;2023-02-01T10:06:17;3.2;81.9
72919;SHT30;61063;55.700;26.994;2023-02-01T10:11:58;3.6;81.2
72919;SHT30;61063;55.700;26.994;2023-02-01T10:16:24;3.8;80.3
72919;SHT30;61063;55.700;26.994;2023-02-01T10:21:42;3.8;80.3
72919;SHT30;61063;55.700;26.994;2023-02-01T10:26:42;3.7;80.5
72919;SHT30;61063;55.700;26.994;2023-02-01T10:31:47;3.5;80.9
72919;SHT30;61063;55.700;26.994;2023-02-01T10:37:10;3.6;81
72919;SHT30;61063;55.700;26.994;2023-02-01T10:42:03;3.7;80.4
72919;SHT30;61063;55.700;26.994;2023-02-01T10:47:08;3.8;80.2
72919;SHT30;61063;55.700;26.994;2023-02-01T10:51:42;3.8;79.9
72919;SHT30;61063;55.700;26.994;2023-02-01T10:56:53;3.9;79.9
72919;SHT30;61063;55.700;26.994;2023-02-01T11:01:15;3.9;79.6
72919;SHT30;61063;55.700;26.994;2023-02-01T11:07:06;3.9;79.8
72919;SHT30;61063;55.700;26.994;2023-02-01T11:11:29;4;79.5
72919;SHT30;61063;55.700;26.994;2023-02-01T11:16:52;4;79.4
72919;SHT30;61063;55.700;26.994;2023-02-01T11:21:51;4.2;79.2
72919;SHT30;61063;55.700;26.994;2023-02-01T11:27:04;4.4;78.7
72919;SHT30;61063;55.700;26.994;2023-02-01T11:32:01;4.6;78.2
72919;SHT30;61063;55.700;26.994;2023-02-01T11:36:49;4.6;78
72919;SHT30;61063;55.700;26.994;2023-02-01T11:42:05;4.7;78.1
72919;SHT30;61063;55.700;26.994;2023-02-01T11:46:16;4.4;78.4
72919;SHT30;61063;55.700;26.994;2023-02-01T11:51:55;4.2;79
72919;SHT30;61063;55.700;26.994;2023-02-01T11:56:26;4.1;79.4
72919;SHT30;61063;55.700;26.994;2023-02-01T12:01:56;3.9;79.8
72919;SHT30;61063;55.700;26.994;2023-02-01T12:06:50;3.9;80
72919;SHT30;61063;55.700;26.994;2023-02-01T12:12:06;3.7;80.4
72919;SHT30;61063;55.700;26.994;2023-02-01T12:16:17;3.6;81.1
72919;SHT30;61063;55.700;26.994;2023-02-01T12:22:14;3.5;81.3
72919;SHT30;61063;55.700;26.994;2023-02-01T12:26:22;3.6;81.4
72919;SHT30;61063;55.700;26.994;2023-02-01T12:31:48;3.5;81.5
72919;SHT30;61063;55.700;26.994;2023-02-01T12:36:43;3.4;81.9
72919;SHT30;61063;55.700;26.994;2023-02-01T12:41:18;3.4;81.9
72919;SHT30;61063;55.700;26.994;2023-02-01T12:46:54;3.4;82
72919;SHT30;61063;55.700;26.994;2023-02-01T12:51:14;3.4;82.1
72919;SHT30;61063;55.700;26.994;2023-02-01T12:57:09;3.3;82.3
72919;SHT30;61063;55.700;26.994;2023-02-01T13:01:15;3.2;82.8
72919;SHT30;61063;55.700;26.994;2023-02-01T13:07:06;3.2;83.2
72919;SHT30;61063;55.700;26.994;2023-02-01T13:11:42;3.1;83.3
72919;SHT30;61063;55.700;26.994;2023-02-01T13:16:52;3.1;83.5
72919;SHT30;61063;55.700;26.994;2023-02-01T13:21:42;3.1;83.6
72919;SHT30;61063;55.700;26.994;2023-02-01T13:26:27;3;83.8
72919;SHT30;61063;55.700;26.994;2023-02-01T13:31:29;2.8;84.5
72919;SHT30;61063;55.700;26.994;2023-02-01T13:36:19;2.8;84.9
72919;SHT30;61063;55.700;26.994;2023-02-01T13:42:01;2.7;85.1
72919;SHT30;61063;55.700;26.994;2023-02-01T13:47:08;2.8;85.3
72919;SHT30;61063;55.700;26.994;2023-02-01T13:51:40;2.8;85.2
72919;SHT30;61063;55.700;26.994;2023-02-01T13:56:43;2.9;85.2
72919;SHT30;61063;55.700;26.994;2023-02-01T14:02:35;2.8;85.4
72919;SHT30;61063;55.700;26.994;2023-02-01T14:06:43;2.8;85.4
72919;SHT30;61063;55.700;26.994;2023-02-01T14:11:46;2.8;85.5
72919;SHT30;61063;55.700;26.994;2023-02-01T14:21:29;2.6;85.8
72919;SHT30;61063;55.700;26.994;2023-02-01T14:26:23;2.6;85.8
72919;SHT30;61063;55.700;26.994;2023-02-01T14:31:40;2.7;85.6
72919;SHT30;61063;55.700;26.994;2023-02-01T14:37:03;2.7;85.4
72919;SHT30;61063;55.700;26.994;2023-02-01T14:41:54;2.6;85.4
72919;SHT30;61063;55.700;26.994;2023-02-01T14:47:02;2.6;85.5
72919;SHT30;61063;55.700;26.994;2023-02-01T14:52:05;2.5;85.5
72919;SHT30;61063;55.700;26.994;2023-02-01T14:57:08;2.5;85.6
72919;SHT30;61063;55.700;26.994;2023-02-01T15:01:39;2.4;85.9
72919;SHT30;61063;55.700;26.994;2023-02-01T15:06:18;2.4;86.2
72919;SHT30;61063;55.700;26.994;2023-02-01T15:12:02;2.3;86.4
72919;SHT30;61063;55.700;26.994;2023-02-01T15:16:27;2.3;86.6
72919;SHT30;61063;55.700;26.994;2023-02-01T15:21:43;2.3;86.7
72919;SHT30;61063;55.700;26.994;2023-02-01T15:26:27;2.3;86.8
72919;SHT30;61063;55.700;26.994;2023-02-01T15:31:50;2.3;86.8
72919;SHT30;61063;55.700;26.994;2023-02-01T15:36:51;2.3;86.9
72919;SHT30;61063;55.700;26.994;2023-02-01T15:41:14;2.3;86.8
72919;SHT30;61063;55.700;26.994;2023-02-01T15:47:06;2.3;86.9
72919;SHT30;61063;55.700;26.994;2023-02-01T15:51:14;2.3;87
72919;SHT30;61063;55.700;26.994;2023-02-01T15:56:52;2.3;87.1
72919;SHT30;61063;55.700;26.994;2023-02-01T16:01:29;2.3;87.1
72919;SHT30;61063;55.700;26.994;2023-02-01T16:06:54;2.3;87.1
72919;SHT30;61063;55.700;26.994;2023-02-01T16:11:40;2.3;87.2
72919;SHT30;61063;55.700;26.994;2023-02-01T16:16:13;2.3;87.1
72919;SHT30;61063;55.700;26.994;2023-02-01T16:21:47;2.3;87.2
72919;SHT30;61063;55.700;26.994;2023-02-01T16:26:49;2.3;87.3
72919;SHT30;61063;55.700;26.994;2023-02-01T16:32:03;2.3;87.4
72919;SHT30;61063;55.700;26.994;2023-02-01T16:36:37;2.2;87.5
72919;SHT30;61063;55.700;26.994;2023-02-01T16:42:04;2.2;87.6
72919;SHT30;61063;55.700;26.994;2023-02-01T16:46:26;2.1;87.8
72919;SHT30;61063;55.700;26.994;2023-02-01T16:51:39;2.1;87.9
72919;SHT30;61063;55.700;26.994;2023-02-01T16:56:14;2.2;87.9
72919;SHT30;61063;55.700;26.994;2023-02-01T17:01:35;2.2;87.8
72919;SHT30;61063;55.700;26.994;2023-02-01T17:06:49;2.1;87.9
72919;SHT30;61063;55.700;26.994;2023-02-01T17:11:49;2.1;88
72919;SHT30;61063;55.700;26.994;2023-02-01T17:16:51;2.1;88.2
72919;SHT30;61063;55.700;26.994;2023-02-01T17:22:03;2;88.2
72919;SHT30;61063;55.700;26.994;2023-02-01T17:27:01;2;88.3
72919;SHT30;61063;55.700;26.994;2023-02-01T17:31:38;2.1;88.3
72919;SHT30;61063;55.700;26.994;2023-02-01T17:37:05;2;88.3
72919;SHT30;61063;55.700;26.994;2023-02-01T17:41:41;2;88.4
72919;SHT30;61063;55.700;26.994;2023-02-01T17:46:49;2;88.5
72919;SHT30;61063;55.700;26.994;2023-02-01T17:51:14;2;88.6
72919;SHT30;61063;55.700;26.994;2023-02-01T17:56:51;2;88.7
72919;SHT30;61063;55.700;26.994;2023-02-01T18:01:41;2;88.6
72919;SHT30;61063;55.700;26.994;2023-02-01T18:07:03;2;88.6
72919;SHT30;61063;55.700;26.994;2023-02-01T18:11:39;2;88.6
72919;SHT30;61063;55.700;26.994;2023-02-01T18:17:05;2;88.5
72919;SHT30;61063;55.700;26.994;2023-02-01T18:22:03;2;88.5
72919;SHT30;61063;55.700;26.994;2023-02-01T18:26:14;2;88.6
72919;SHT30;61063;55.700;26.994;2023-02-01T18:31:38;1.9;88.7
72919;SHT30;61063;55.700;26.994;2023-02-01T18:36:13;1.9;88.8
72919;SHT30;61063;55.700;26.994;2023-02-01T18:41:47;1.9;88.8
72919;SHT30;61063;55.700;26.994;2023-02-01T18:46:13;2;88.7
72919;SHT30;61063;55.700;26.994;2023-02-01T18:51:37;2;88.6
72919;SHT30;61063;55.700;26.994;2023-02-01T18:56:39;2;88.6
72919;SHT30;61063;55.700;26.994;2023-02-01T19:02:01;2;88.5
72919;SHT30;61063;55.700;26.994;2023-02-01T19:06:59;2;88.6
72919;SHT30;61063;55.700;26.994;2023-02-01T19:11:47;2;88.6
72919;SHT30;61063;55.700;26.994;2023-02-01T19:16:37;2.1;88.5
72919;SHT30;61063;55.700;26.994;2023-02-01T19:21:13;2.1;88.4
72919;SHT30;61063;55.700;26.994;2023-02-01T19:26:25;2.2;88.3
72919;SHT30;61063;55.700;26.994;2023-02-01T19:31:27;2.2;88.1
72919;SHT30;61063;55.700;26.994;2023-02-01T19:37:03;2.2;88
72919;SHT30;61063;55.700;26.994;2023-02-01T19:42:03;2.1;88.1
72919;SHT30;61063;55.700;26.994;2023-02-01T19:46:27;2.2;88
72919;SHT30;61063;55.700;26.994;2023-02-01T19:51:55;2.2;87.9
72919;SHT30;61063;55.700;26.994;2023-02-01T19:57:03;2.1;88
72919;SHT30;61063;55.700;26.994;2023-02-01T20:01:41;2.1;88.1
72919;SHT30;61063;55.700;26.994;2023-02-01T20:06:21;2.1;88.1
72919;SHT30;61063;55.700;26.994;2023-02-01T20:11:47;2.1;88.1
72919;SHT30;61063;55.700;26.994;2023-02-01T20:16:23;2.1;88.1
72919;SHT30;61063;55.700;26.994;2023-02-01T20:21:25;2.1;88
72919;SHT30;61063;55.700;26.994;2023-02-01T20:26:27;2.2;88
72919;SHT30;61063;55.700;26.994;2023-02-01T20:31:49;2.2;87.9
72919;SHT30;61063;55.700;26.994;2023-02-01T20:36:49;2.2;87.9
72919;SHT30;61063;55.700;26.994;2023-02-01T20:41:47;2.2;87.9
72919;SHT30;61063;55.700;26.994;2023-02-01T20:47:03;2.1;87.9
72919;SHT30;61063;55.700;26.994;2023-02-01T20:51:12;2.1;87.9
72919;SHT30;61063;55.700;26.994;2023-02-01T20:56:43;2.1;87.9
72919;SHT30;61063;55.700;26.994;2023-02-01T21:01:29;2.1;87.9
72919;SHT30;61063;55.700;26.994;2023-02-01T21:06:51;2.1;88
72919;SHT30;61063;55.700;26.994;2023-02-01T21:11:47;2.2;87.9
72919;SHT30;61063;55.700;26.994;2023-02-01T21:16:39;2.2;87.8
72919;SHT30;61063;55.700;26.994;2023-02-01T21:21:49;2.2;87.8
72919;SHT30;61063;55.700;26.994;2023-02-01T21:26:51;2.2;87.7
72919;SHT30;61063;55.700;26.994;2023-02-01T21:31:53;2.2;87.7
72919;SHT30;61063;55.700;26.994;2023-02-01T21:36:21;2.1;87.8
72919;SHT30;61063;55.700;26.994;2023-02-01T21:42:03;2.1;87.9
72919;SHT30;61063;55.700;26.994;2023-02-01T21:46:13;2;88.1
72919;SHT30;61063;55.700;26.994;2023-02-01T21:51:49;2;88.3
72919;SHT30;61063;55.700;26.994;2023-02-01T21:56:27;1.9;88.5
72919;SHT30;61063;55.700;26.994;2023-02-01T22:01:51;1.8;88.8
72919;SHT30;61063;55.700;26.994;2023-02-01T22:06:21;1.8;89
72919;SHT30;61063;55.700;26.994;2023-02-01T22:11:47;1.8;89.1
72919;SHT30;61063;55.700;26.994;2023-02-01T22:16:49;1.7;89.1
72919;SHT30;61063;55.700;26.994;2023-02-01T22:22:05;1.7;89.2
72919;SHT30;61063;55.700;26.994;2023-02-01T22:27:05;1.7;89.2
72919;SHT30;61063;55.700;26.994;2023-02-01T22:31:35;1.7;89.2
72919;SHT30;61063;55.700;26.994;2023-02-01T22:37:01;1.6;89.3
72919;SHT30;61063;55.700;26.994;2023-02-01T22:41:13;1.6;89.4
72919;SHT30;61063;55.700;26.994;2023-02-01T22:46:47;1.6;89.5
72919;SHT30;61063;55.700;26.994;2023-02-01T22:51:26;1.5;89.6
72919;SHT30;61063;55.700;26.994;2023-02-01T22:56:51;1.5;89.6
72919;SHT30;61063;55.700;26.994;2023-02-01T23:01:25;1.6;89.6
72919;SHT30;61063;55.700;26.994;2023-02-01T23:06:45;1.6;89.6
72919;SHT30;61063;55.700;26.994;2023-02-01T23:11:47;1.6;89.7
72919;SHT30;61063;55.700;26.994;2023-02-01T23:16:57;1.6;89.7
72919;SHT30;61063;55.700;26.994;2023-02-01T23:21:59;1.6;89.6
72919;SHT30;61063;55.700;26.994;2023-02-01T23:26:21;1.6;89.7
72919;SHT30;61063;55.700;26.994;2023-02-01T23:31:59;1.6;89.6
72919;SHT30;61063;55.700;26.994;2023-02-01T23:36:39;1.7;89.5
72919;SHT30;61063;55.700;26.994;2023-02-01T23:41:45;1.7;89.3
72919;SHT30;61063;55.700;26.994;2023-02-01T23:46:13;1.6;89.5
72919;SHT30;61063;55.700;26.994;2023-02-01T23:51:37;1.6;89.5
72919;SHT30;61063;55.700;26.994;2023-02-01T23:56:38;1.6;89.6
